Time;durP1;ratioP1;P1;durP2;ratioP2;P2;SDS_P1;SDS_P2;PMS_P1;PMS_P2;Temp;Humidity;BMP_temperature;BMP_pressure;BME280_temperature;BME280_humidity;BME280_pressure;Samples;Min_cycle;Max_cycle;Signal;HPM_P1;HPM_P2
2023/01/10 00:00:23;;;;;;;1.40;1.25;;;;;;;;;;4502279;28;20022;-63
2023/01/10 00:02:34;;;;;;;1.23;1.13;;;;;;;;;;4501733;28;20599;-63
2023/01/10 00:04:44;;;;;;;1.17;1.08;;;;;;;;;;4501463;28;20033;-63
2023/01/10 00:06:54;;;;;;;0.98;0.93;;;;;;;;;;4501565;28;20041;-63
2023/01/10 00:09:05;;;;;;;1.10;1.00;;;;;;;;;;4490903;28;20046;-63
2023/01/10 00:13:44;;;;;;;1.27;1.17;;;;;;;;;;4502029;28;20832;-63
2023/01/10 00:15:54;;;;;;;1.20;1.10;;;;;;;;;;4501747;28;20082;-63
2023/01/10 00:18:05;;;;;;;1.23;1.13;;;;;;;;;;4501429;28;20042;-63
2023/01/10 00:20:15;;;;;;;1.35;1.10;;;;;;;;;;4501615;28;20034;-63
2023/01/10 00:22:26;;;;;;;1.60;1.30;;;;;;;;;;4501859;28;20442;-63
2023/01/10 00:24:37;;;;;;;1.73;1.30;;;;;;;;;;4501403;28;21152;-63
2023/01/10 00:26:52;;;;;;;1.30;1.20;;;;;;;;;;4491976;28;21448;-63
2023/01/10 00:29:02;;;;;;;1.27;1.17;;;;;;;;;;4501296;28;20782;-63
2023/01/10 00:31:15;;;;;;;1.63;1.20;;;;;;;;;;4500568;28;20033;-63
2023/01/10 00:33:30;;;;;;;1.38;1.05;;;;;;;;;;4501126;28;20585;-63
2023/01/10 00:35:41;;;;;;;1.25;1.00;;;;;;;;;;4501195;28;20041;-63
2023/01/10 00:37:56;;;;;;;1.40;1.00;;;;;;;;;;4501198;28;20655;-63
2023/01/10 00:40:10;;;;;;;1.30;1.20;;;;;;;;;;4501250;28;20045;-64
2023/01/10 00:44:49;;;;;;;1.08;1.00;;;;;;;;;;4501942;28;20565;-63
2023/01/10 00:46:59;;;;;;;1.70;1.50;;;;;;;;;;4500664;28;20067;-64
2023/01/10 00:49:12;;;;;;;1.60;1.30;;;;;;;;;;4500930;28;20058;-63
2023/01/10 00:51:22;;;;;;;1.38;1.20;;;;;;;;;;4500875;28;20068;-63
2023/01/10 00:53:33;;;;;;;1.58;1.20;;;;;;;;;;4501479;28;20048;-63
2023/01/10 00:55:43;;;;;;;1.58;1.20;;;;;;;;;;4501109;28;20047;-63
2023/01/10 00:57:53;;;;;;;1.70;1.30;;;;;;;;;;4500920;28;20038;-63
2023/01/10 01:00:07;;;;;;;1.55;1.20;;;;;;;;;;4501308;28;20041;-63
2023/01/10 01:02:18;;;;;;;1.50;1.20;;;;;;;;;;4501237;28;20061;-63
2023/01/10 01:04:32;;;;;;;1.55;1.30;;;;;;;;;;4501465;28;20586;-63
2023/01/10 01:06:44;;;;;;;1.55;1.42;;;;;;;;;;4501902;28;20048;-63
2023/01/10 01:08:55;;;;;;;1.75;1.45;;;;;;;;;;4501140;28;20057;-63
2023/01/10 01:11:05;;;;;;;2.13;1.50;;;;;;;;;;4501170;28;20553;-63
2023/01/10 01:13:16;;;;;;;1.35;1.25;;;;;;;;;;4501453;28;20038;-63
2023/01/10 01:15:27;;;;;;;2.35;1.50;;;;;;;;;;4501136;28;20096;-63
2023/01/10 01:17:38;;;;;;;1.50;1.30;;;;;;;;;;4501612;28;20052;-63
2023/01/10 01:19:48;;;;;;;2.00;1.48;;;;;;;;;;4504122;28;20474;-63
2023/01/10 01:21:58;;;;;;;2.10;1.48;;;;;;;;;;4504496;28;20111;-63
2023/01/10 01:24:09;;;;;;;2.05;1.50;;;;;;;;;;4504098;28;20042;-63
2023/01/10 01:26:19;;;;;;;1.65;1.42;;;;;;;;;;4504442;28;20065;-63
2023/01/10 01:28:29;;;;;;;2.10;1.50;;;;;;;;;;4504260;28;20054;-63
2023/01/10 01:30:40;;;;;;;1.90;1.42;;;;;;;;;;4503606;28;20037;-63
2023/01/10 01:32:50;;;;;;;2.05;1.55;;;;;;;;;;4503867;28;20161;-63
2023/01/10 01:35:00;;;;;;;2.22;1.50;;;;;;;;;;4503629;28;20040;-63
2023/01/10 01:37:11;;;;;;;1.73;1.45;;;;;;;;;;4504014;28;20038;-64
2023/01/10 01:39:21;;;;;;;1.75;1.40;;;;;;;;;;4503334;28;20034;-63
2023/01/10 01:44:02;;;;;;;2.08;1.55;;;;;;;;;;4503803;28;20065;-63
2023/01/10 01:46:13;;;;;;;1.52;1.42;;;;;;;;;;4503831;28;20077;-63
2023/01/10 01:48:26;;;;;;;2.30;1.75;;;;;;;;;;4503751;28;20124;-63
2023/01/10 01:50:41;;;;;;;2.13;1.67;;;;;;;;;;4504178;28;20106;-62
2023/01/10 01:52:53;;;;;;;1.73;1.60;;;;;;;;;;4503652;28;20618;-63
2023/01/10 01:55:04;;;;;;;1.75;1.60;;;;;;;;;;4503934;28;20041;-63
2023/01/10 01:57:17;;;;;;;1.95;1.40;;;;;;;;;;4503134;28;20046;-63
2023/01/10 01:59:30;;;;;;;1.77;1.30;;;;;;;;;;4493435;28;20037;-63
2023/01/10 02:01:42;;;;;;;1.92;1.60;;;;;;;;;;4504178;28;20054;-63
2023/01/10 02:03:54;;;;;;;1.90;1.50;;;;;;;;;;4504645;28;20026;-63
2023/01/10 02:06:05;;;;;;;2.47;1.50;;;;;;;;;;4504614;28;20044;-63
2023/01/10 02:08:15;;;;;;;1.58;1.42;;;;;;;;;;4504043;28;20037;-63
2023/01/10 02:10:28;;;;;;;2.17;1.50;;;;;;;;;;4504335;28;20050;-63
2023/01/10 02:12:39;;;;;;;2.20;1.30;;;;;;;;;;4505588;28;20112;-63
2023/01/10 02:14:50;;;;;;;1.80;1.52;;;;;;;;;;4504170;28;20565;-63
2023/01/10 02:17:00;;;;;;;1.50;1.30;;;;;;;;;;4503636;28;20129;-63
2023/01/10 02:19:16;;;;;;;2.08;1.40;;;;;;;;;;4503812;28;20030;-63
2023/01/10 02:21:36;;;;;;;1.93;1.47;;;;;;;;;;4505073;28;20137;-63
2023/01/10 02:24:12;;;;;;;2.90;1.50;;;;;;;;;;4504662;28;20081;-63
2023/01/10 02:26:49;;;;;;;1.88;1.30;;;;;;;;;;4486127;28;20132;-63
2023/01/10 02:28:59;;;;;;;2.35;1.67;;;;;;;;;;4500578;28;20088;-63
2023/01/10 02:31:16;;;;;;;2.22;1.40;;;;;;;;;;4504230;28;20022;-63
2023/01/10 02:33:29;;;;;;;1.92;1.52;;;;;;;;;;4504865;28;20120;-63
2023/01/10 02:35:53;;;;;;;1.73;1.30;;;;;;;;;;4504569;28;20042;-63
2023/01/10 02:38:04;;;;;;;1.85;1.50;;;;;;;;;;4504278;28;20068;-63
2023/01/10 02:40:43;;;;;;;2.13;1.42;;;;;;;;;;4503695;28;20088;-63
2023/01/10 02:42:59;;;;;;;1.77;1.40;;;;;;;;;;4493434;28;20057;-63
2023/01/10 02:45:20;;;;;;;1.83;1.40;;;;;;;;;;4503761;28;20033;-63
2023/01/10 02:47:36;;;;;;;1.60;1.35;;;;;;;;;;4503803;28;20045;-63
2023/01/10 02:49:47;;;;;;;2.00;1.50;;;;;;;;;;4503230;28;20049;-63
2023/01/10 02:51:58;;;;;;;2.13;1.60;;;;;;;;;;4503591;28;20030;-63
2023/01/10 02:54:11;;;;;;;2.15;1.50;;;;;;;;;;4503478;28;20041;-63
2023/01/10 02:56:28;;;;;;;1.75;1.30;;;;;;;;;;4503645;28;20064;-63
2023/01/10 02:59:02;;;;;;;2.40;1.45;;;;;;;;;;4518065;28;20745;-63
2023/01/10 03:01:24;;;;;;;1.95;1.50;;;;;;;;;;4502418;28;20050;-63
2023/01/10 03:03:40;;;;;;;1.70;1.45;;;;;;;;;;4503408;28;20236;-63
2023/01/10 03:05:56;;;;;;;2.33;1.52;;;;;;;;;;4503856;28;21198;-63
2023/01/10 03:08:17;;;;;;;2.60;1.50;;;;;;;;;;4503247;28;20092;-63
2023/01/10 03:10:29;;;;;;;2.28;1.55;;;;;;;;;;4503446;28;20044;-63
2023/01/10 03:12:49;;;;;;;1.90;1.70;;;;;;;;;;4503209;28;20608;-63
2023/01/10 03:15:01;;;;;;;2.45;1.75;;;;;;;;;;4500823;28;20038;-63
2023/01/10 03:17:12;;;;;;;2.13;1.50;;;;;;;;;;4503200;28;20034;-63
2023/01/10 03:19:25;;;;;;;2.05;1.30;;;;;;;;;;4503807;28;20627;-63
2023/01/10 03:21:37;;;;;;;2.15;1.40;;;;;;;;;;4503086;28;20201;-63
2023/01/10 03:23:48;;;;;;;2.70;1.63;;;;;;;;;;4503338;28;20577;-63
2023/01/10 03:25:59;;;;;;;2.10;1.50;;;;;;;;;;4502804;28;20225;-63
2023/01/10 03:28:15;;;;;;;1.85;1.48;;;;;;;;;;4502873;28;20880;-63
2023/01/10 03:30:31;;;;;;;2.78;1.67;;;;;;;;;;4503275;28;20094;-63
2023/01/10 03:32:42;;;;;;;2.10;1.33;;;;;;;;;;4502887;28;20034;-64
2023/01/10 03:34:53;;;;;;;2.70;1.50;;;;;;;;;;4502925;28;20590;-63
2023/01/10 03:37:03;;;;;;;1.90;1.33;;;;;;;;;;4503112;28;20052;-63
2023/01/10 03:39:23;;;;;;;2.05;1.30;;;;;;;;;;4502841;28;20033;-63
2023/01/10 03:41:40;;;;;;;1.65;1.17;;;;;;;;;;4502158;28;20825;-63
2023/01/10 03:46:35;;;;;;;2.22;1.40;;;;;;;;;;4517487;28;20120;-63
2023/01/10 03:48:46;;;;;;;2.00;1.40;;;;;;;;;;4502204;28;20132;-63
2023/01/10 03:50:58;;;;;;;2.08;1.27;;;;;;;;;;4502162;28;20048;-63
2023/01/10 03:53:10;;;;;;;2.83;1.30;;;;;;;;;;4502865;28;20095;-63
2023/01/10 03:55:21;;;;;;;2.20;1.30;;;;;;;;;;4502840;28;20153;-64
2023/01/10 03:57:31;;;;;;;2.13;1.40;;;;;;;;;;4502438;28;20564;-63
2023/01/10 03:59:42;;;;;;;2.33;1.33;;;;;;;;;;4500765;28;20136;-63
2023/01/10 04:01:53;;;;;;;2.17;1.33;;;;;;;;;;4502512;28;20045;-63
2023/01/10 04:04:03;;;;;;;1.95;1.30;;;;;;;;;;4502845;28;20489;-63
2023/01/10 04:06:13;;;;;;;1.40;1.20;;;;;;;;;;4502324;28;20569;-64
2023/01/10 04:08:24;;;;;;;2.25;1.20;;;;;;;;;;4502008;28;20751;-63
2023/01/10 04:10:34;;;;;;;1.58;1.20;;;;;;;;;;4502321;28;20048;-63
2023/01/10 04:12:44;;;;;;;1.75;1.17;;;;;;;;;;4502833;28;20105;-63
2023/01/10 04:14:54;;;;;;;1.73;1.23;;;;;;;;;;4502653;28;20557;-63
2023/01/10 04:17:05;;;;;;;2.97;1.10;;;;;;;;;;4502158;28;20080;-64
2023/01/10 04:19:15;;;;;;;1.67;1.15;;;;;;;;;;4502259;28;20038;-63
2023/01/10 04:21:25;;;;;;;1.80;1.10;;;;;;;;;;4503237;28;20771;-63
2023/01/10 04:23:36;;;;;;;1.70;0.90;;;;;;;;;;4502575;28;20347;-63
2023/01/10 04:25:46;;;;;;;2.40;1.13;;;;;;;;;;4503240;28;20914;-63
2023/01/10 04:27:57;;;;;;;1.20;0.85;;;;;;;;;;4503033;28;20033;-64
2023/01/10 04:30:08;;;;;;;1.80;1.13;;;;;;;;;;4502312;28;20068;-63
2023/01/10 04:32:18;;;;;;;2.08;1.00;;;;;;;;;;4502429;28;20080;-63
2023/01/10 04:34:28;;;;;;;1.55;1.00;;;;;;;;;;4502656;28;20068;-63
2023/01/10 04:36:39;;;;;;;1.58;1.00;;;;;;;;;;4502808;28;20034;-63
2023/01/10 04:38:49;;;;;;;1.73;1.10;;;;;;;;;;4502015;28;20033;-63
2023/01/10 04:41:00;;;;;;;1.52;1.00;;;;;;;;;;4502669;28;20040;-63
2023/01/10 04:43:10;;;;;;;1.75;0.90;;;;;;;;;;4502365;28;20768;-64
2023/01/10 04:45:20;;;;;;;1.30;0.80;;;;;;;;;;4495771;28;20031;-63
2023/01/10 04:47:31;;;;;;;2.38;0.98;;;;;;;;;;4502606;28;20042;-63
2023/01/10 04:49:41;;;;;;;2.17;1.00;;;;;;;;;;4502302;28;20431;-63
2023/01/10 04:51:51;;;;;;;1.77;0.90;;;;;;;;;;4503435;28;20038;-63
2023/01/10 04:54:02;;;;;;;2.05;1.00;;;;;;;;;;4505349;28;20699;-63
2023/01/10 04:56:14;;;;;;;1.48;0.90;;;;;;;;;;4505756;28;20040;-63
2023/01/10 04:58:25;;;;;;;1.45;0.80;;;;;;;;;;4506030;28;20033;-63
2023/01/10 05:00:35;;;;;;;1.67;1.00;;;;;;;;;;4505918;28;20075;-63
2023/01/10 05:02:45;;;;;;;1.60;0.80;;;;;;;;;;4505567;28;20042;-63
2023/01/10 05:04:56;;;;;;;1.80;0.90;;;;;;;;;;4506185;28;20110;-64
2023/01/10 05:07:06;;;;;;;2.47;0.88;;;;;;;;;;4505825;28;20130;-63
2023/01/10 05:09:16;;;;;;;2.05;1.00;;;;;;;;;;4504929;28;20073;-63
2023/01/10 05:11:26;;;;;;;1.17;0.75;;;;;;;;;;4505430;28;20109;-63
2023/01/10 05:13:37;;;;;;;1.15;0.68;;;;;;;;;;4505470;28;20096;-63
2023/01/10 05:15:47;;;;;;;1.30;0.98;;;;;;;;;;4505365;28;20596;-64
2023/01/10 05:17:58;;;;;;;1.33;0.70;;;;;;;;;;4504996;28;20046;-63
2023/01/10 05:20:09;;;;;;;1.80;0.77;;;;;;;;;;4505224;28;20034;-63
2023/01/10 05:22:19;;;;;;;1.75;0.90;;;;;;;;;;4503920;28;20041;-63
2023/01/10 05:24:29;;;;;;;1.67;0.85;;;;;;;;;;4492601;28;20088;-63
2023/01/10 05:26:40;;;;;;;1.50;0.80;;;;;;;;;;4505056;28;20520;-63
2023/01/10 05:28:50;;;;;;;1.55;0.80;;;;;;;;;;4504377;28;20050;-63
2023/01/10 05:31:00;;;;;;;1.30;0.80;;;;;;;;;;4505095;28;20054;-63
2023/01/10 05:33:11;;;;;;;1.33;0.73;;;;;;;;;;4504743;28;20318;-63
2023/01/10 05:35:21;;;;;;;1.83;0.90;;;;;;;;;;4504761;28;20064;-63
2023/01/10 05:37:31;;;;;;;1.35;0.90;;;;;;;;;;4504240;28;20046;-63
2023/01/10 05:39:42;;;;;;;1.45;0.80;;;;;;;;;;4503219;28;20255;-63
2023/01/10 05:41:52;;;;;;;1.63;0.90;;;;;;;;;;4504701;28;20069;-63
2023/01/10 05:44:03;;;;;;;0.98;0.70;;;;;;;;;;4504847;28;20581;-63
2023/01/10 05:46:13;;;;;;;1.70;0.93;;;;;;;;;;4505200;28;20593;-63
2023/01/10 05:48:23;;;;;;;2.00;0.80;;;;;;;;;;4504393;28;20501;-63
2023/01/10 05:50:33;;;;;;;1.00;0.70;;;;;;;;;;4504570;28;20128;-63
2023/01/10 05:52:44;;;;;;;1.90;1.00;;;;;;;;;;4504750;28;20045;-63
2023/01/10 05:54:54;;;;;;;1.77;1.00;;;;;;;;;;4505174;28;20047;-63
2023/01/10 05:57:04;;;;;;;2.22;1.08;;;;;;;;;;4504446;28;20037;-63
2023/01/10 05:59:15;;;;;;;1.48;0.90;;;;;;;;;;4503967;28;20112;-63
2023/01/10 06:01:25;;;;;;;1.13;0.90;;;;;;;;;;4504495;28;20042;-63
2023/01/10 06:03:36;;;;;;;1.25;0.80;;;;;;;;;;4504416;28;20068;-63
2023/01/10 06:05:46;;;;;;;1.73;0.90;;;;;;;;;;4505008;28;20061;-63
2023/01/10 06:07:56;;;;;;;1.10;0.80;;;;;;;;;;4504728;28;20049;-63
2023/01/10 06:10:07;;;;;;;1.58;0.80;;;;;;;;;;4504298;28;20052;-62
2023/01/10 06:12:18;;;;;;;1.88;1.00;;;;;;;;;;4505089;28;20038;-62
2023/01/10 06:14:28;;;;;;;2.28;0.98;;;;;;;;;;4504902;28;20070;-63
2023/01/10 06:16:38;;;;;;;1.00;0.80;;;;;;;;;;4504931;28;20491;-63
2023/01/10 06:18:48;;;;;;;1.20;0.90;;;;;;;;;;4504933;28;20050;-63
2023/01/10 06:20:59;;;;;;;1.95;0.90;;;;;;;;;;4503915;28;20045;-63
2023/01/10 06:23:09;;;;;;;1.33;0.80;;;;;;;;;;4504375;28;20045;-63
2023/01/10 06:25:19;;;;;;;2.05;1.08;;;;;;;;;;4504182;28;20080;-63
2023/01/10 06:27:30;;;;;;;2.05;1.15;;;;;;;;;;4503998;28;20038;-62
2023/01/10 06:29:40;;;;;;;1.30;0.93;;;;;;;;;;4504042;28;20049;-62
2023/01/10 06:31:50;;;;;;;1.88;1.00;;;;;;;;;;4503859;28;20125;-62
2023/01/10 06:34:00;;;;;;;1.45;0.85;;;;;;;;;;4505160;28;20554;-62
2023/01/10 06:36:11;;;;;;;1.58;1.10;;;;;;;;;;4504106;28;20459;-62
2023/01/10 06:38:21;;;;;;;2.05;1.05;;;;;;;;;;4504268;28;20041;-62
2023/01/10 06:40:32;;;;;;;2.08;1.00;;;;;;;;;;4504323;28;20045;-62
2023/01/10 06:42:42;;;;;;;1.83;1.00;;;;;;;;;;4503077;28;20044;-62
2023/01/10 06:44:52;;;;;;;1.77;1.00;;;;;;;;;;4503890;28;20573;-62
2023/01/10 06:47:03;;;;;;;1.30;0.80;;;;;;;;;;4503807;28;20452;-62
2023/01/10 06:49:13;;;;;;;1.77;1.00;;;;;;;;;;4493777;28;20042;-63
2023/01/10 06:51:23;;;;;;;1.80;0.90;;;;;;;;;;4503226;28;20556;-61
2023/01/10 06:53:34;;;;;;;1.85;0.98;;;;;;;;;;4503597;28;20037;-63
2023/01/10 06:55:44;;;;;;;2.08;1.00;;;;;;;;;;4504296;28;20265;-63
2023/01/10 06:57:55;;;;;;;1.70;0.90;;;;;;;;;;4518460;28;20049;-63
2023/01/10 07:00:07;;;;;;;1.40;0.93;;;;;;;;;;4503794;28;20034;-62
2023/01/10 07:02:17;;;;;;;1.42;1.02;;;;;;;;;;4503482;28;20042;-62
2023/01/10 07:04:28;;;;;;;1.65;0.90;;;;;;;;;;4503371;28;20084;-62
2023/01/10 07:06:38;;;;;;;2.08;0.90;;;;;;;;;;4503224;28;21002;-62
2023/01/10 07:08:49;;;;;;;1.60;1.00;;;;;;;;;;4503084;28;20132;-63
2023/01/10 07:10:59;;;;;;;1.40;0.80;;;;;;;;;;4500683;28;20169;-62
2023/01/10 07:13:09;;;;;;;2.63;1.00;;;;;;;;;;4502381;28;20046;-62
2023/01/10 07:15:20;;;;;;;2.00;1.15;;;;;;;;;;4503556;28;20040;-62
2023/01/10 07:17:30;;;;;;;2.13;0.90;;;;;;;;;;4502546;28;20583;-65
2023/01/10 07:19:40;;;;;;;1.75;0.90;;;;;;;;;;4502527;28;20033;-62
2023/01/10 07:21:50;;;;;;;1.75;1.17;;;;;;;;;;4502366;28;20038;-63
2023/01/10 07:24:01;;;;;;;1.63;1.10;;;;;;;;;;4502299;28;20990;-62
2023/01/10 07:26:16;;;;;;;1.75;1.10;;;;;;;;;;4502197;28;20721;-63
2023/01/10 07:28:26;;;;;;;1.73;1.00;;;;;;;;;;4502136;28;20144;-62
2023/01/10 07:30:36;;;;;;;1.23;1.00;;;;;;;;;;4502352;28;20133;-62
2023/01/10 07:32:56;;;;;;;1.27;0.80;;;;;;;;;;4502336;28;20060;-62
2023/01/10 07:35:06;;;;;;;1.48;0.90;;;;;;;;;;4490919;28;20152;-63
2023/01/10 07:37:17;;;;;;;1.83;1.10;;;;;;;;;;4502295;28;20045;-64
2023/01/10 07:39:27;;;;;;;1.13;1.00;;;;;;;;;;4501455;28;20038;-65
2023/01/10 07:41:38;;;;;;;1.85;1.08;;;;;;;;;;4501093;28;20061;-64
2023/01/10 07:43:48;;;;;;;2.10;1.00;;;;;;;;;;4500120;28;20482;-64
2023/01/10 07:45:59;;;;;;;1.92;1.00;;;;;;;;;;4501554;28;20041;-64
2023/01/10 07:48:09;;;;;;;1.60;0.90;;;;;;;;;;4490361;28;20046;-63
2023/01/10 07:50:19;;;;;;;1.38;0.90;;;;;;;;;;4502541;28;20129;-64
2023/01/10 07:52:31;;;;;;;1.95;1.10;;;;;;;;;;4502103;28;20034;-64
2023/01/10 07:54:41;;;;;;;2.33;1.30;;;;;;;;;;4502326;28;21045;-64
2023/01/10 07:56:51;;;;;;;1.73;1.10;;;;;;;;;;4500915;28;20108;-64
2023/01/10 07:59:02;;;;;;;1.63;1.05;;;;;;;;;;4501746;28;20049;-63
2023/01/10 08:01:12;;;;;;;1.50;0.98;;;;;;;;;;4501992;28;20088;-64
2023/01/10 08:03:23;;;;;;;1.98;1.05;;;;;;;;;;4502202;28;20552;-64
2023/01/10 08:05:33;;;;;;;1.52;1.00;;;;;;;;;;4501890;28;20040;-64
2023/01/10 08:07:44;;;;;;;2.58;1.10;;;;;;;;;;4501909;28;20804;-64
2023/01/10 08:09:54;;;;;;;1.70;1.10;;;;;;;;;;4501182;28;20042;-64
2023/01/10 08:12:04;;;;;;;2.00;1.08;;;;;;;;;;4501165;28;20030;-64
2023/01/10 08:14:15;;;;;;;2.58;1.10;;;;;;;;;;4500437;28;20041;-64
2023/01/10 08:16:25;;;;;;;1.98;0.90;;;;;;;;;;4501184;28;20292;-64
2023/01/10 08:18:37;;;;;;;2.50;1.20;;;;;;;;;;4500965;28;20053;-63
2023/01/10 08:20:48;;;;;;;2.47;1.10;;;;;;;;;;4501370;28;20042;-64
2023/01/10 08:22:59;;;;;;;2.65;1.20;;;;;;;;;;4501568;28;20486;-65
2023/01/10 08:25:09;;;;;;;2.17;1.10;;;;;;;;;;4502035;28;20034;-63
2023/01/10 08:27:20;;;;;;;1.58;1.00;;;;;;;;;;4500557;28;20050;-63
2023/01/10 08:29:30;;;;;;;1.83;1.10;;;;;;;;;;4481357;28;20046;-63
2023/01/10 08:31:40;;;;;;;1.83;1.10;;;;;;;;;;4499743;28;20093;-63
2023/01/10 08:33:51;;;;;;;2.42;1.10;;;;;;;;;;4500680;28;20037;-63
2023/01/10 08:36:01;;;;;;;1.30;0.80;;;;;;;;;;4500874;28;20023;-63
2023/01/10 08:38:11;;;;;;;3.08;1.42;;;;;;;;;;4500414;28;20060;-63
2023/01/10 08:40:21;;;;;;;2.30;1.30;;;;;;;;;;4500700;28;20030;-63
2023/01/10 08:42:32;;;;;;;1.58;1.02;;;;;;;;;;4500707;28;20046;-63
2023/01/10 08:44:42;;;;;;;2.35;1.33;;;;;;;;;;4500842;28;20162;-63
2023/01/10 08:46:52;;;;;;;2.35;1.20;;;;;;;;;;4500573;28;20037;-63
2023/01/10 08:49:03;;;;;;;2.53;1.35;;;;;;;;;;4500261;28;20084;-63
2023/01/10 08:51:13;;;;;;;2.38;1.27;;;;;;;;;;4500888;28;20026;-63
2023/01/10 08:53:25;;;;;;;3.10;1.50;;;;;;;;;;4500546;28;20592;-64
2023/01/10 08:55:36;;;;;;;2.65;1.35;;;;;;;;;;4499299;28;20038;-64
2023/01/10 08:57:46;;;;;;;2.10;1.20;;;;;;;;;;4500984;28;20034;-64
2023/01/10 08:59:57;;;;;;;1.83;1.25;;;;;;;;;;4500202;28;20026;-64
2023/01/10 09:02:11;;;;;;;1.98;1.40;;;;;;;;;;4501367;28;20502;-64
2023/01/10 09:04:22;;;;;;;1.92;1.35;;;;;;;;;;4501576;28;21342;-64
2023/01/10 09:06:32;;;;;;;2.63;1.48;;;;;;;;;;4498601;28;20037;-65
2023/01/10 09:08:43;;;;;;;3.33;1.38;;;;;;;;;;4500746;28;20055;-64
2023/01/10 09:10:53;;;;;;;2.40;1.40;;;;;;;;;;4500641;28;20030;-64
2023/01/10 09:13:04;;;;;;;3.42;1.45;;;;;;;;;;4500864;28;20805;-64
2023/01/10 09:15:15;;;;;;;2.25;1.27;;;;;;;;;;4501008;28;20044;-63
2023/01/10 09:17:26;;;;;;;3.28;1.55;;;;;;;;;;4491480;28;20042;-63
2023/01/10 09:19:36;;;;;;;1.95;1.15;;;;;;;;;;4500970;28;20032;-63
2023/01/10 09:21:46;;;;;;;3.25;1.60;;;;;;;;;;4501084;28;20049;-64
2023/01/10 09:23:56;;;;;;;2.45;1.38;;;;;;;;;;4501270;28;20033;-64
2023/01/10 09:26:07;;;;;;;2.85;1.55;;;;;;;;;;4501902;28;20137;-63
2023/01/10 09:28:18;;;;;;;2.90;1.30;;;;;;;;;;4501090;28;20378;-64
2023/01/10 09:30:29;;;;;;;1.98;1.45;;;;;;;;;;4501577;28;20042;-63
2023/01/10 09:32:39;;;;;;;2.80;1.50;;;;;;;;;;4501951;28;20045;-63
2023/01/10 09:34:49;;;;;;;2.70;1.52;;;;;;;;;;4501866;28;20045;-63
2023/01/10 09:37:00;;;;;;;2.65;1.40;;;;;;;;;;4501565;28;20093;-63
2023/01/10 09:39:10;;;;;;;3.00;1.48;;;;;;;;;;4502475;28;20034;-63
2023/01/10 09:41:33;;;;;;;2.63;1.33;;;;;;;;;;4504873;28;20474;-63
2023/01/10 09:43:49;;;;;;;2.30;1.50;;;;;;;;;;4504699;28;20766;-63
2023/01/10 09:46:04;;;;;;;2.88;1.63;;;;;;;;;;4519387;28;20034;-63
2023/01/10 09:48:19;;;;;;;3.22;1.63;;;;;;;;;;4503608;28;20038;-63
2023/01/10 09:50:39;;;;;;;2.85;1.50;;;;;;;;;;4504344;28;20620;-63
2023/01/10 09:52:52;;;;;;;3.42;1.60;;;;;;;;;;4502876;28;20034;-63
2023/01/10 09:55:09;;;;;;;2.30;1.50;;;;;;;;;;4503173;28;20073;-64
2023/01/10 09:57:21;;;;;;;3.20;1.50;;;;;;;;;;4504445;28;20524;-63
2023/01/10 09:59:35;;;;;;;3.75;1.80;;;;;;;;;;4503371;28;20604;-63
2023/01/10 10:01:46;;;;;;;2.97;1.55;;;;;;;;;;4504501;28;20144;-63
2023/01/10 10:04:21;;;;;;;3.05;1.60;;;;;;;;;;4502684;28;20817;-63
2023/01/10 10:06:33;;;;;;;2.47;1.40;;;;;;;;;;4503124;28;20884;-63
2023/01/10 10:08:45;;;;;;;2.53;1.70;;;;;;;;;;4502156;28;20038;-64
2023/01/10 10:10:55;;;;;;;2.53;1.60;;;;;;;;;;4502773;28;20825;-63
2023/01/10 10:13:20;;;;;;;2.50;1.40;;;;;;;;;;4517405;28;20033;-63
2023/01/10 10:15:36;;;;;;;3.15;1.70;;;;;;;;;;4502455;28;20069;-63
2023/01/10 10:17:54;;;;;;;2.30;1.40;;;;;;;;;;4502528;28;20025;-63
2023/01/10 10:20:10;;;;;;;2.95;1.60;;;;;;;;;;4502321;28;20113;-63
2023/01/10 10:22:20;;;;;;;2.20;1.60;;;;;;;;;;4494623;28;20790;-63
2023/01/10 10:24:40;;;;;;;3.75;1.35;;;;;;;;;;4517903;28;20272;-63
2023/01/10 10:26:50;;;;;;;2.25;1.42;;;;;;;;;;4503107;28;20037;-63
2023/01/10 10:29:00;;;;;;;3.75;1.70;;;;;;;;;;4502867;28;20635;-63
2023/01/10 10:31:10;;;;;;;2.83;1.70;;;;;;;;;;4517730;28;20497;-63
2023/01/10 10:33:47;;;;;;;2.95;1.67;;;;;;;;;;4503095;28;20045;-63
2023/01/10 10:36:03;;;;;;;1.50;1.25;;;;;;;;;;4500765;28;20042;-63
2023/01/10 10:38:23;;;;;;;1.95;1.17;;;;;;;;;;4517301;28;20037;-63
2023/01/10 10:40:37;;;;;;;3.15;1.50;;;;;;;;;;4501749;28;20042;-63
2023/01/10 10:42:49;;;;;;;2.40;1.40;;;;;;;;;;4501926;28;20181;-63
2023/01/10 10:45:13;;;;;;;2.88;1.60;;;;;;;;;;4501948;28;20034;-63
2023/01/10 10:47:26;;;;;;;3.83;2.03;;;;;;;;;;4502755;28;20036;-63
2023/01/10 10:49:48;;;;;;;3.17;1.55;;;;;;;;;;4499394;28;20703;-63
2023/01/10 10:51:59;;;;;;;2.15;1.52;;;;;;;;;;4502922;28;20037;-63
2023/01/10 10:54:11;;;;;;;2.40;1.45;;;;;;;;;;4503148;28;20050;-63
2023/01/10 10:56:23;;;;;;;2.90;1.83;;;;;;;;;;4502094;28;20030;-63
2023/01/10 10:58:33;;;;;;;3.70;2.30;;;;;;;;;;4501148;28;20082;-63
2023/01/10 11:00:45;;;;;;;2.97;1.77;;;;;;;;;;4502121;28;20676;-63
2023/01/10 11:03:18;;;;;;;4.20;3.10;;;;;;;;;;4499882;28;20038;-63
2023/01/10 11:05:31;;;;;;;2.92;1.80;;;;;;;;;;4502106;28;20129;-63
2023/01/10 11:07:42;;;;;;;2.10;1.45;;;;;;;;;;4501744;28;20089;-63
2023/01/10 11:12:20;;;;;;;21.17;19.27;;;;;;;;;;4501755;28;20037;-63
2023/01/10 11:15:00;;;;;;;21.48;19.58;;;;;;;;;;4502182;28;20116;-64
2023/01/10 11:17:18;;;;;;;21.00;19.10;;;;;;;;;;4492171;28;20849;-65
2023/01/10 11:19:29;;;;;;;21.35;19.45;;;;;;;;;;4502057;28;20134;-65
2023/01/10 11:21:40;;;;;;;22.05;20.05;;;;;;;;;;4501935;28;20084;-66
2023/01/10 11:23:54;;;;;;;22.92;20.83;;;;;;;;;;4503248;28;20037;-61
2023/01/10 11:26:33;;;;;;;21.52;19.52;;;;;;;;;;4491220;28;20789;-62
2023/01/10 11:28:44;;;;;;;19.75;17.95;;;;;;;;;;4500004;28;20789;-64
2023/01/10 11:30:55;;;;;;;20.30;18.40;;;;;;;;;;4501040;28;20044;-64
2023/01/10 11:33:07;;;;;;;19.98;18.17;;;;;;;;;;4501057;28;20165;-64
2023/01/10 11:35:22;;;;;;;21.33;19.42;;;;;;;;;;4501429;28;20569;-63
2023/01/10 11:37:34;;;;;;;20.63;18.83;;;;;;;;;;4492625;28;20162;-61
2023/01/10 11:39:44;;;;;;;20.20;18.40;;;;;;;;;;4499535;28;20050;-64
2023/01/10 11:41:55;;;;;;;20.35;18.55;;;;;;;;;;4501146;28;20038;-63
2023/01/10 11:44:14;;;;;;;21.58;19.67;;;;;;;;;;4500992;28;20033;-66
2023/01/10 11:46:25;;;;;;;21.65;19.73;;;;;;;;;;4501634;28;20030;-66
2023/01/10 11:48:43;;;;;;;7.72;7.03;;;;;;;;;;4501328;28;20037;-66
2023/01/10 11:50:54;;;;;;;2.35;1.48;;;;;;;;;;4501630;28;20133;-66
2023/01/10 11:53:05;;;;;;;2.42;1.30;;;;;;;;;;4501541;28;20038;-66
2023/01/10 11:55:20;;;;;;;2.22;1.40;;;;;;;;;;4501705;28;20936;-66
2023/01/10 11:57:31;;;;;;;1.85;1.08;;;;;;;;;;4483771;28;20042;-67
2023/01/10 11:59:58;;;;;;;2.80;1.00;;;;;;;;;;4502314;28;20141;-67
2023/01/10 12:02:11;;;;;;;2.13;1.30;;;;;;;;;;4500825;28;20030;-66
2023/01/10 12:04:22;;;;;;;3.10;1.30;;;;;;;;;;4502239;28;20073;-65
2023/01/10 12:06:33;;;;;;;3.38;1.40;;;;;;;;;;4502507;28;20057;-65
2023/01/10 12:08:43;;;;;;;2.28;1.33;;;;;;;;;;4502013;28;20137;-65
2023/01/10 12:11:02;;;;;;;2.40;1.35;;;;;;;;;;4501001;28;20140;-66
2023/01/10 12:13:14;;;;;;;2.40;1.40;;;;;;;;;;4501417;28;20155;-67
2023/01/10 12:15:28;;;;;;;2.60;1.20;;;;;;;;;;4501341;28;21442;-66
2023/01/10 12:17:39;;;;;;;2.45;1.30;;;;;;;;;;4501226;28;20036;-65
2023/01/10 12:19:54;;;;;;;2.35;1.20;;;;;;;;;;4500974;28;20048;-65
2023/01/10 12:22:06;;;;;;;2.90;1.48;;;;;;;;;;4502858;28;20033;-65
2023/01/10 12:24:25;;;;;;;1.85;1.25;;;;;;;;;;4502070;28;20143;-65
2023/01/10 12:26:35;;;;;;;2.15;1.23;;;;;;;;;;4501079;28;20038;-65
2023/01/10 12:28:49;;;;;;;1.80;1.17;;;;;;;;;;4500898;28;20030;-65
2023/01/10 12:31:01;;;;;;;2.08;1.00;;;;;;;;;;4499973;28;20559;-65
2023/01/10 12:33:14;;;;;;;1.52;1.02;;;;;;;;;;4500967;28;20042;-66
2023/01/10 12:35:35;;;;;;;2.15;1.02;;;;;;;;;;4501468;28;20045;-65
2023/01/10 12:37:58;;;;;;;2.25;1.20;;;;;;;;;;4501049;28;20038;-65
2023/01/10 12:40:11;;;;;;;2.08;1.08;;;;;;;;;;4501295;28;20042;-65
2023/01/10 12:45:06;;;;;;;1.90;1.17;;;;;;;;;;4515765;28;20144;-65
2023/01/10 12:47:35;;;;;;;3.08;1.20;;;;;;;;;;4491464;28;20610;-65
2023/01/10 12:49:55;;;;;;;1.40;0.90;;;;;;;;;;4500903;28;20888;-65
2023/01/10 12:52:09;;;;;;;2.50;1.30;;;;;;;;;;4493104;28;20046;-65
2023/01/10 12:54:22;;;;;;;2.13;1.02;;;;;;;;;;4501215;28;20038;-65
2023/01/10 12:56:32;;;;;;;1.30;0.90;;;;;;;;;;4501372;28;20038;-65
2023/01/10 12:58:44;;;;;;;2.00;1.02;;;;;;;;;;4501118;28;20034;-65
2023/01/10 13:00:57;;;;;;;2.88;1.10;;;;;;;;;;4500957;28;20041;-65
2023/01/10 13:03:10;;;;;;;2.38;1.00;;;;;;;;;;4501676;28;20038;-65
2023/01/10 13:05:22;;;;;;;2.15;1.00;;;;;;;;;;4501126;28;20089;-65
2023/01/10 13:07:34;;;;;;;1.70;0.82;;;;;;;;;;4501470;28;20038;-65
2023/01/10 13:09:44;;;;;;;1.80;1.00;;;;;;;;;;4500737;28;20042;-65
2023/01/10 13:12:07;;;;;;;1.85;0.90;;;;;;;;;;4500906;28;20860;-65
2023/01/10 13:14:20;;;;;;;2.83;1.20;;;;;;;;;;4503851;28;20038;-65
2023/01/10 13:16:47;;;;;;;0.95;0.80;;;;;;;;;;4504445;28;20033;-65
2023/01/10 13:19:09;;;;;;;1.65;0.82;;;;;;;;;;4503594;28;20037;-64
2023/01/10 13:21:20;;;;;;;1.80;0.93;;;;;;;;;;4518872;28;20422;-64
2023/01/10 13:23:32;;;;;;;1.65;0.90;;;;;;;;;;4503724;28;20046;-63
2023/01/10 13:25:52;;;;;;;1.42;0.82;;;;;;;;;;4503755;28;20074;-64
2023/01/10 13:28:04;;;;;;;1.75;0.90;;;;;;;;;;4503607;28;20129;-64